AirNav   TITAN Aviation Fuels
 
 1030 users online  

5OR5 Juniper Air Park
Bend, Oregon, USA

GOING TO BEND?


FAA INFORMATION EFFECTIVE 09 SEPTEMBER 2021

Location

FAA Identifier: 5OR5
Lat/Long: 44-02-04.4300N 121-07-06.0860W
44-02.073833N 121-07.101433W
44.0345639,-121.1183572
(estimated)
Elevation: 3490 ft. / 1064 m (estimated)
Variation: 18E (1985)
From city: 9 miles E of BEND, OR
Time zone: UTC -7 (UTC -8 during Standard Time)
Zip code: 97701

Airport Operations

Airport use: Private use. Permission required prior to landing
Activation date: 10/1978
Control tower: no
ARTCC: SEATTLE CENTER
FSS: MC MINNVILLE FLIGHT SERVICE STATION
Attendance: DAYLIGHT HOURS
Wind indicator: yes
Segmented circle: no

Airport Communications

WX AWOS-3 at BDN (5 nm NW): 134.425 (541-382-1477)
WX ASOS at RDM (13 nm N): 119.025 (541-504-8743)
WX AWOS-3PT at S21 (17 nm SW): 128.325 (541-593-4623)
WX AWOS-3PT at S39 (18 nm NE): 118.325 (541-447-4060)

Nearby radio navigation aids

VOR radial/distance  VOR name  Freq  Var
DSDr131/15.3DESCHUTES VORTAC117.6018E

Airport Services

Runway Information

Runway 6/24

Dimensions: 2640 x 100 ft. / 805 x 30 m
Surface: dirt
RUNWAY 6  RUNWAY 24
Traffic pattern: leftleft

Airport Ownership and Management from official FAA records

Ownership: Privately-owned
Owner: GARY ADAMS
624 SEACLIFF DRIVE
APTOS, CA 95003
Phone 408-688-0817
ALSO R BRAATZ AND T MORGAN.
Manager: GARY ADAMS
624 SEACLIFF DRIVE
APTOS, CA 95003
Phone 503-389-0928

Airport Operational Statistics

Aircraft based on the field: 4
Single engine airplanes: 4
    

Additional Remarks

FOR CD CTC SEATTLE ARTCC AT 253-351-3694.

Instrument Procedures

There are no published instrument procedures at 5OR5.

Some nearby airports with instrument procedures:

KBDN - Bend Municipal Airport (5 nm NW)
KRDM - Roberts Field Airport (13 nm N)
S21 - Sunriver Airport (17 nm SW)
S39 - Prineville Airport (18 nm NE)
S33 - Madras Municipal Airport (38 nm N)
 
Loc | Ops | Rwys | IFR | FBO | Links
Com | Nav | Svcs | Stats | Notes
Area around 5OR5 (Juniper Air Park)
 
Road maps at: MapQuest Bing Google
 
Aerial photo
WARNING: Photo may not be current or correct
Aerial photo of 5OR5 (Juniper Air Park)
Photo taken 07-Mar-2014
looking west.

Do you have a better or more recent aerial photo of Juniper Air Park that you would like to share? If so, please send us your photo.

 
Sectional chart

 
Airport distance calculator
Flying to Juniper Air Park? Find the distance to fly.

From to 5OR5

Sunrise and sunset
Times for 19-Sep-2021
 Local
(UTC-7)
 Zulu
(UTC)
Morning civil twilight06:2013:20
Sunrise06:4913:49
Sunset19:0702:07
Evening civil twilight19:3602:36

Current date and time
Zulu (UTC)  20-Sep-2021 00:18:44
Local (UTC-7)  19-Sep-2021 17:18:44
 
METAR
KBDN 
5nm NW 
192355Z AUTO 31007G16KT 10SM FEW060 SCT075 15/02 A3018 RMK AO2
KRDM 
13nm N 
192356Z 32013KT 10SM OVC090 16/03 A3015 RMK AO2 SLP204 T01560033 10178 20128 51009
KS21 
17nm SW 
192355Z AUTO 27004KT 10SM BKN030 OVC036 10/04 A3025 RMK AO2
KS39 
18nm NE 
192355Z AUTO 29014KT 10SM CLR 14/03 A3017 RMK AO2
TAF
KBDN 
5nm NW 
191720Z 1918/2018 25012KT P6SM VCSH BKN060 FM192200 30012G18KT P6SM BKN060 FM200300 32006KT P6SM SCT060 SCT250 FM200600 VRB03KT P6SM SCT250
KRDM 
13nm N 
192026Z 1920/2018 32012G20KT P6SM BKN050 FM200200 32008KT P6SM SCT060 BKN250 FM200600 VRB03KT P6SM SCT250
NOTAMs
Click for the latest NOTAMs
NOTAMs are issued by the DoD/FAA and will open in a separate window not controlled by AirNav.

 

 
 

Would you like to see your business listed on this page?

 If your business provides an interesting product or service to pilots, flight crews, aircraft, or users of the Juniper Air Park, you should consider listing it here.  To start the listing process, click on the button below
 
Add a business
 

Other Pages about Juniper Air Park

Update a link
 
Copyright © AirNav, LLC. All rights reserved. Privacy Policy  Contact